Tracy, Missouri
Current Conditions -  °F | °C
As of 1:53 PM on Monday 24 Nov 2014 (Local Time) from KMCI Reporting Station
Overcast Overcast  
Wind Chill: 27°   Ceiling: 3200
Heat Index: 36°   Visibility: 10mi
Dew Point: 24°   Wind: 15mph
Humidity: 62%   Direction: 290°WNW
Pressure: 29.81"   Gusts: 24mph
Location:  39.3588°N, 94.8136°W
Report Text: KMCI 241953Z 29013G21KT 10SM OVC032 02/M04 A2981 RMK AO2 SLP099 T00221044
Loading
Personal Weather Stations






























Interactive Weather Map New forecast layout! Learn more

10-Day Weather Forecast

Advertisements
Track Severe Weather on mobile